createdAt,value
2019-06-07T00:01:28.088Z,3.72
2019-06-07T00:03:58.855Z,4.40
2019-06-07T00:06:29.531Z,3.65
2019-06-07T00:09:00.301Z,4.42
2019-06-07T00:11:32.568Z,3.87
2019-06-07T00:14:03.229Z,4.35
2019-06-07T00:16:33.905Z,4.40
2019-06-07T00:19:04.855Z,3.92
2019-06-07T00:22:13.518Z,3.87
2019-06-07T00:24:12.651Z,4.03
2019-06-07T00:26:57.616Z,4.40
2019-06-07T00:29:15.383Z,3.92
2019-06-07T00:31:45.783Z,4.17
2019-06-07T00:34:19.108Z,4.00
2019-06-07T00:36:48.592Z,3.80
2019-06-07T00:39:24.684Z,4.40
2019-06-07T00:41:51.926Z,4.20
2019-06-07T00:44:23.343Z,4.50
2019-06-07T00:46:55.285Z,4.33
2019-06-07T00:49:41.116Z,4.37
2019-06-07T00:51:58.230Z,4.10
2019-06-07T00:54:28.882Z,4.15
2019-06-07T00:56:59.404Z,4.20
2019-06-07T00:59:30.153Z,4.17
2019-06-07T01:02:00.702Z,4.47
2019-06-07T01:04:31.335Z,4.25
2019-06-07T01:07:01.939Z,4.05
2019-06-07T01:09:32.915Z,4.12
2019-06-07T01:12:03.538Z,3.60
2019-06-07T01:14:34.238Z,4.00
2019-06-07T01:17:40.087Z,4.40
2019-06-07T01:19:58.140Z,4.28
2019-06-07T01:22:29.542Z,4.12
2019-06-07T01:25:00.554Z,4.37
2019-06-07T01:27:31.300Z,4.00
2019-06-07T01:30:02.103Z,4.25
2019-06-07T01:32:33.419Z,3.80
2019-06-07T01:35:06.508Z,3.65
2019-06-07T01:37:37.194Z,4.17
2019-06-07T01:40:08.671Z,4.10
2019-06-07T01:42:39.433Z,3.92
2019-06-07T01:45:10.706Z,4.22
2019-06-07T01:47:41.282Z,5.00
2019-06-07T01:50:12.219Z,4.33
2019-06-07T01:52:42.891Z,4.35
2019-06-07T01:55:13.882Z,4.05
2019-06-07T01:57:48.412Z,3.90
2019-06-07T02:00:17.495Z,4.53
2019-06-07T02:02:48.531Z,4.40
2019-06-07T02:05:21.572Z,5.10
2019-06-07T02:07:52.590Z,4.35
2019-06-07T02:10:26.349Z,4.28
2019-06-07T02:12:56.280Z,4.50
2019-06-07T02:15:32.041Z,4.60
2019-06-07T02:18:00.826Z,4.95
2019-06-07T02:20:34.211Z,4.90
2019-06-07T02:23:09.474Z,4.80
2019-06-07T02:28:27.470Z,4.72
2019-06-07T02:30:53.265Z,5.30
2019-06-07T02:33:15.873Z,5.58
2019-06-07T02:35:46.496Z,5.10
2019-06-07T02:38:17.315Z,4.80
2019-06-07T02:40:48.086Z,5.30
2019-06-07T02:43:18.859Z,5.55
2019-06-07T02:45:49.422Z,5.37
2019-06-07T02:48:20.186Z,4.37
2019-06-07T02:50:51.028Z,5.12
2019-06-07T02:53:25.101Z,5.62
2019-06-07T02:58:31.104Z,6.30
2019-06-07T03:01:07.796Z,5.45
2019-06-07T03:03:33.075Z,6.50
2019-06-07T03:06:03.602Z,6.10
2019-06-07T03:08:36.577Z,6.40
2019-06-07T03:11:08.204Z,6.42
2019-06-07T03:13:41.014Z,7.20
2019-06-07T03:16:13.640Z,7.25
2019-06-07T03:18:50.928Z,7.75
2019-06-07T03:21:23.999Z,7.12
2019-06-07T03:23:58.800Z,7.03
2019-06-07T03:26:31.234Z,6.97
2019-06-07T03:29:01.709Z,7.03
2019-06-07T03:31:40.262Z,7.03
2019-06-07T03:34:04.660Z,6.90
2019-06-07T03:36:38.885Z,7.33
2019-06-07T03:39:07.754Z,7.25
2019-06-07T03:41:50.205Z,7.55
2019-06-07T03:44:10.588Z,7.17
2019-06-07T03:46:41.846Z,7.55
2019-06-07T03:49:12.822Z,6.95
2019-06-07T03:51:43.447Z,7.65
2019-06-07T03:54:14.144Z,7.50
2019-06-07T03:56:44.830Z,7.60
2019-06-07T03:59:15.497Z,6.85
2019-06-07T04:01:45.999Z,7.70
2019-06-07T04:04:16.795Z,6.78
2019-06-07T04:06:47.412Z,7.87
2019-06-07T04:09:17.969Z,8.65
2019-06-07T04:11:48.518Z,8.20
2019-06-07T04:14:19.170Z,8.20
2019-06-07T04:16:49.995Z,8.13
2019-06-07T04:19:20.523Z,8.05
2019-06-07T04:21:52.224Z,7.70
2019-06-07T04:24:22.745Z,8.65
2019-06-07T04:26:53.390Z,8.05
2019-06-07T04:29:32.841Z,7.72
2019-06-07T04:31:56.325Z,27.85
2019-06-07T04:34:26.923Z,8.18
2019-06-07T04:36:59.686Z,8.03
2019-06-07T04:39:33.501Z,7.92
2019-06-07T04:42:03.076Z,8.50
2019-06-07T04:44:39.347Z,9.00
2019-06-07T04:47:09.967Z,8.50
2019-06-07T04:49:45.596Z,8.38
2019-06-07T04:52:17.300Z,7.85
2019-06-07T04:54:48.078Z,7.95
2019-06-07T04:57:18.678Z,7.83
2019-06-07T05:00:22.599Z,7.67
2019-06-07T05:02:21.961Z,8.73
2019-06-07T05:04:52.674Z,7.58
2019-06-07T05:07:23.268Z,8.28
2019-06-07T05:09:54.096Z,7.92
2019-06-07T05:12:25.059Z,6.87
2019-06-07T05:14:55.731Z,7.90
2019-06-07T05:17:26.427Z,8.23
2019-06-07T05:30:36.594Z,8.13
2019-06-07T05:32:46.087Z,7.97
2019-06-07T05:35:16.946Z,8.35
2019-06-07T05:37:47.894Z,7.47
2019-06-07T05:40:21.636Z,10.88
2019-06-07T05:42:52.237Z,16.32
2019-06-07T05:45:25.806Z,8.10
2019-06-07T05:47:56.373Z,8.23
2019-06-07T05:50:41.408Z,7.90
2019-06-07T05:53:00.178Z,7.58
2019-06-07T05:55:32.718Z,8.13
2019-06-07T05:58:03.523Z,7.15
2019-06-07T06:00:36.408Z,8.30
2019-06-07T06:03:07.478Z,8.05
2019-06-07T06:05:43.161Z,7.47
2019-06-07T06:08:11.312Z,8.63
2019-06-07T06:10:46.132Z,8.55
2019-06-07T06:13:14.487Z,8.30
2019-06-07T06:19:16.064Z,13.55
2019-06-07T06:21:46.635Z,7.90
2019-06-07T06:24:17.262Z,8.68
2019-06-07T06:26:52.271Z,8.65
2019-06-07T06:29:20.097Z,9.28
2019-06-07T06:32:40.044Z,8.15
2019-06-07T06:34:23.739Z,8.50
2019-06-07T06:36:54.529Z,8.45
2019-06-07T06:39:25.031Z,7.97
2019-06-07T06:42:03.323Z,8.23
2019-06-07T06:44:27.962Z,17.92
2019-06-07T06:46:58.740Z,8.93
2019-06-07T06:49:30.385Z,8.50
2019-06-07T06:52:00.906Z,8.40
2019-06-07T06:54:40.931Z,7.92
2019-06-07T06:57:19.180Z,8.00
2019-06-07T06:59:39.539Z,9.25
2019-06-07T07:02:09.650Z,9.20
2019-06-07T07:04:41.911Z,8.43
2019-06-07T07:07:12.544Z,7.60
2019-06-07T07:09:47.144Z,8.63
2019-06-07T07:12:15.486Z,8.35
2019-06-07T07:14:49.541Z,9.18
2019-06-07T07:17:18.616Z,8.58
2019-06-07T07:19:50.430Z,8.05
2019-06-07T07:22:21.542Z,8.78
2019-06-07T07:24:54.564Z,8.28
2019-06-07T07:27:24.615Z,7.08
2019-06-07T07:30:34.389Z,7.67
2019-06-07T07:32:27.435Z,8.35
2019-06-07T07:35:00.463Z,7.75
2019-06-07T07:37:30.286Z,7.92
2019-06-07T07:40:21.257Z,8.35
2019-06-07T07:42:32.966Z,7.67
2019-06-07T07:45:05.021Z,8.35
2019-06-07T07:47:35.909Z,7.62
2019-06-07T07:50:07.350Z,7.58
2019-06-07T07:52:38.339Z,7.70
2019-06-07T07:55:09.278Z,8.15
2019-06-07T07:57:39.911Z,7.75
2019-06-07T08:00:48.763Z,8.08
2019-06-07T08:02:43.150Z,7.83
2019-06-07T08:05:23.427Z,8.28
2019-06-07T08:07:50.037Z,8.43
2019-06-07T08:10:19.829Z,7.78
2019-06-07T08:13:08.753Z,7.30
2019-06-07T08:15:22.951Z,7.50
2019-06-07T08:17:58.057Z,7.70
2019-06-07T08:20:26.040Z,7.75
2019-06-07T08:22:59.759Z,7.20
2019-06-07T08:25:28.924Z,6.47
2019-06-07T08:27:59.665Z,7.10
2019-06-07T08:33:24.857Z,5.78
2019-06-07T08:38:24.818Z,5.95
2019-06-07T08:40:39.198Z,6.62
2019-06-07T08:43:19.845Z,5.25
2019-06-07T08:45:42.161Z,5.37
2019-06-07T08:48:26.985Z,5.53
2019-06-07T08:50:45.435Z,6.30
2019-06-07T08:53:16.113Z,6.40
2019-06-07T08:55:46.708Z,5.55
2019-06-07T08:58:17.315Z,6.20
2019-06-07T09:00:48.399Z,6.20
2019-06-07T09:03:18.924Z,7.08
2019-06-07T09:05:49.814Z,6.55
2019-06-07T09:08:29.837Z,5.85
2019-06-07T09:10:54.030Z,6.08
2019-06-07T09:13:24.982Z,6.87
2019-06-07T09:15:58.803Z,5.78
2019-06-07T09:18:42.187Z,6.40
2019-06-07T09:21:01.528Z,5.83
2019-06-07T09:23:32.182Z,5.67
2019-06-07T09:26:10.579Z,5.28
2019-06-07T09:28:35.307Z,6.00
2019-06-07T09:31:09.779Z,6.22
2019-06-07T09:33:38.222Z,7.72
2019-06-07T09:36:12.650Z,4.95
2019-06-07T09:38:42.024Z,5.33
2019-06-07T09:41:12.671Z,5.80
2019-06-07T09:44:01.908Z,6.08
2019-06-07T09:46:17.092Z,6.03
2019-06-07T09:49:10.659Z,5.65
2019-06-07T09:51:20.785Z,5.78
2019-06-07T09:53:51.562Z,6.33
2019-06-07T09:56:22.159Z,6.33
2019-06-07T09:58:54.188Z,6.25
2019-06-07T10:01:25.111Z,5.20
2019-06-07T10:03:58.765Z,6.33
2019-06-07T10:06:29.341Z,5.87
2019-06-07T10:10:08.249Z,6.17
2019-06-07T10:11:35.005Z,5.67
2019-06-07T10:14:06.897Z,7.40
2019-06-07T10:16:46.639Z,6.75
2019-06-07T10:19:09.994Z,6.40
2019-06-07T10:21:41.811Z,6.60
2019-06-07T10:24:12.565Z,6.00
2019-06-07T10:26:43.437Z,6.62
2019-06-07T10:29:14.076Z,6.90
2019-06-07T10:31:44.834Z,6.58
2019-06-07T10:34:15.629Z,7.28
2019-06-07T10:36:46.555Z,6.72
2019-06-07T10:39:17.276Z,6.97
2019-06-07T10:41:47.984Z,7.75
2019-06-07T10:44:25.047Z,7.05
2019-06-07T10:46:59.061Z,6.45
2019-06-07T10:49:27.931Z,6.05
2019-06-07T10:52:02.897Z,5.12
2019-06-07T10:54:31.950Z,6.42
2019-06-07T10:57:02.979Z,5.85
2019-06-07T10:59:33.620Z,5.35
2019-06-07T11:02:05.611Z,5.47
2019-06-07T11:04:36.356Z,5.35
2019-06-07T11:07:08.188Z,5.53
2019-06-07T11:09:39.189Z,6.85
2019-06-07T11:12:10.765Z,7.53
2019-06-07T11:14:41.903Z,6.65
2019-06-07T11:17:13.386Z,5.85
2019-06-07T11:19:44.240Z,5.45
2019-06-07T11:22:14.838Z,5.80
2019-06-07T11:24:45.475Z,5.72
2019-06-07T11:27:16.555Z,5.90
2019-06-07T11:29:48.299Z,5.60
2019-06-07T11:32:19.067Z,4.33
2019-06-07T11:34:49.764Z,5.90
2019-06-07T11:37:20.504Z,5.53
2019-06-07T11:39:51.179Z,5.37
2019-06-07T11:42:22.079Z,5.05
2019-06-07T11:44:56.807Z,5.10
2019-06-07T11:47:24.778Z,5.85
2019-06-07T11:50:01.494Z,5.05
2019-06-07T11:52:32.900Z,4.78
2019-06-07T11:55:08.819Z,4.80
2019-06-07T12:00:16.438Z,5.53
2019-06-07T12:02:47.308Z,5.55
2019-06-07T12:05:20.140Z,4.70
2019-06-07T12:07:50.198Z,4.83
2019-06-07T12:10:23.090Z,4.35
2019-06-07T12:12:53.676Z,4.83
2019-06-07T12:15:24.337Z,5.72
2019-06-07T12:17:54.967Z,5.00
2019-06-07T12:20:25.559Z,4.28
2019-06-07T12:22:56.049Z,4.78
2019-06-07T12:25:26.818Z,4.10
2019-06-07T12:27:57.428Z,5.00
2019-06-07T12:30:28.264Z,4.30
2019-06-07T12:32:59.077Z,4.70
2019-06-07T12:35:29.724Z,4.65
2019-06-07T12:38:00.294Z,3.95
2019-06-07T12:40:32.417Z,4.97
2019-06-07T12:43:03.090Z,4.50
2019-06-07T12:45:44.554Z,4.62
2019-06-07T12:48:06.118Z,5.42
2019-06-07T12:50:43.032Z,4.58
2019-06-07T12:53:10.367Z,4.15
2019-06-07T12:55:42.178Z,3.98
2019-06-07T12:58:13.806Z,4.10
2019-06-07T13:00:44.934Z,4.03
2019-06-07T13:03:16.274Z,4.40
2019-06-07T13:05:46.874Z,4.35
2019-06-07T13:08:17.671Z,4.15
2019-06-07T13:10:48.447Z,4.17
2019-06-07T13:13:20.938Z,4.03
2019-06-07T13:15:51.914Z,4.53
2019-06-07T13:18:24.780Z,4.17
2019-06-07T13:20:55.730Z,4.17
2019-06-07T13:23:28.914Z,4.33
2019-06-07T13:25:59.927Z,4.05
2019-06-07T13:28:31.281Z,4.00
2019-06-07T13:31:02.590Z,3.58
2019-06-07T13:33:38.372Z,3.95
2019-06-07T13:36:05.909Z,3.75
2019-06-07T13:38:36.483Z,3.92
2019-06-07T13:41:07.153Z,4.20
2019-06-07T13:43:37.854Z,4.28
2019-06-07T13:46:12.690Z,4.47
2019-06-07T13:48:40.852Z,4.20
2019-06-07T13:51:11.737Z,4.05
2019-06-07T13:53:42.674Z,4.40
2019-06-07T13:56:13.162Z,4.50
2019-06-07T13:58:43.760Z,4.00
2019-06-07T14:01:14.240Z,3.92
2019-06-07T14:03:45.110Z,7.20
2019-06-07T14:06:15.960Z,4.80
2019-06-07T14:08:48.029Z,4.28
2019-06-07T14:11:19.404Z,4.15
2019-06-07T14:13:50.199Z,4.30
2019-06-07T14:16:22.092Z,4.10
2019-06-07T14:18:53.111Z,5.67
2019-06-07T14:21:24.614Z,4.45
2019-06-07T14:23:55.388Z,3.80
2019-06-07T14:26:27.344Z,4.12
2019-06-07T14:28:59.740Z,3.98
2019-06-07T14:31:32.227Z,4.10
2019-06-07T14:34:03.486Z,4.28
2019-06-07T14:36:34.308Z,4.25
2019-06-07T14:39:06.727Z,4.00
2019-06-07T14:41:37.361Z,3.90
2019-06-07T14:44:07.994Z,3.65
2019-06-07T14:46:38.513Z,3.85
2019-06-07T14:49:09.274Z,3.60
2019-06-07T14:51:40.259Z,3.60
2019-06-07T14:54:10.758Z,3.85
2019-06-07T14:56:41.716Z,4.15
2019-06-07T14:59:12.771Z,3.55
2019-06-07T15:01:44.496Z,3.90
2019-06-07T15:04:15.246Z,3.80
2019-06-07T15:06:45.961Z,3.75
2019-06-07T15:09:16.523Z,3.80
2019-06-07T15:11:47.372Z,3.95
2019-06-07T15:14:18.102Z,3.83
2019-06-07T15:16:48.690Z,4.53
2019-06-07T15:19:19.398Z,3.70
2019-06-07T15:21:50.102Z,3.50
2019-06-07T15:24:20.852Z,3.58
2019-06-07T15:26:51.399Z,3.40
2019-06-07T15:29:22.323Z,3.92
2019-06-07T15:31:52.852Z,3.98
2019-06-07T15:34:23.604Z,3.55
2019-06-07T15:36:54.145Z,3.65
2019-06-07T15:39:24.818Z,3.80
2019-06-07T15:41:55.460Z,3.95
2019-06-07T15:44:26.170Z,3.85
2019-06-07T15:46:57.063Z,4.25
2019-06-07T15:49:27.671Z,4.37
2019-06-07T15:51:58.354Z,3.92
2019-06-07T15:54:30.169Z,3.80
2019-06-07T15:57:01.035Z,4.25
2019-06-07T15:59:33.101Z,4.33
2019-06-07T16:02:03.946Z,3.85
2019-06-07T16:04:35.586Z,4.05
2019-06-07T16:07:06.435Z,4.72
2019-06-07T16:09:36.947Z,4.25
2019-06-07T16:12:08.510Z,4.40
2019-06-07T16:14:39.183Z,4.22
2019-06-07T16:17:09.937Z,4.47
2019-06-07T16:19:44.464Z,4.35
2019-06-07T16:22:13.107Z,4.47
2019-06-07T16:24:43.914Z,4.33
2019-06-07T16:27:14.632Z,4.37
2019-06-07T16:29:45.619Z,4.00
2019-06-07T16:32:16.325Z,4.05
2019-06-07T16:34:47.064Z,4.87
2019-06-07T16:37:17.762Z,4.65
2019-06-07T16:39:48.668Z,4.25
2019-06-07T16:42:19.426Z,4.20
2019-06-07T16:44:49.991Z,4.40
2019-06-07T16:47:20.625Z,4.20
2019-06-07T16:49:51.173Z,4.30
2019-06-07T16:52:21.654Z,4.00
2019-06-07T16:54:52.678Z,4.20
2019-06-07T16:57:23.610Z,4.45
2019-06-07T16:59:54.235Z,4.20
2019-06-07T17:02:24.935Z,4.55
2019-06-07T17:04:55.669Z,10.18
2019-06-07T17:07:26.302Z,5.25
2019-06-07T17:09:57.211Z,3.98
2019-06-07T17:12:27.807Z,4.40
2019-06-07T17:14:58.493Z,4.45
2019-06-07T17:17:29.294Z,4.87
2019-06-07T17:19:59.889Z,6.62
2019-06-07T17:22:30.673Z,5.08
2019-06-07T17:25:01.399Z,4.40
2019-06-07T17:27:32.438Z,4.22
2019-06-07T17:30:04.556Z,4.58
2019-06-07T17:32:49.523Z,4.10
2019-06-07T17:35:07.701Z,4.40
2019-06-07T17:37:38.331Z,4.20
2019-06-07T17:40:09.995Z,4.40
2019-06-07T17:42:40.775Z,4.25
2019-06-07T17:45:12.147Z,4.17
2019-06-07T17:47:43.732Z,5.78
2019-06-07T17:50:15.387Z,14.05
2019-06-07T17:52:46.228Z,22.75
2019-06-07T17:55:18.096Z,6.87
2019-06-07T17:57:48.986Z,5.22
2019-06-07T18:00:29.100Z,4.50
2019-06-07T18:02:53.147Z,4.53
2019-06-07T18:05:24.954Z,4.90
2019-06-07T18:07:56.719Z,4.97
2019-06-07T18:10:36.306Z,4.35
2019-06-07T18:13:06.917Z,4.72
2019-06-07T18:15:40.577Z,5.12
2019-06-07T18:18:12.360Z,4.80
2019-06-07T18:20:43.332Z,5.00
2019-06-07T18:23:14.079Z,4.72
2019-06-07T18:25:46.319Z,5.10
2019-06-07T18:28:17.296Z,4.78
2019-06-07T18:30:48.633Z,4.55
2019-06-07T18:33:19.515Z,4.65
2019-06-07T18:35:51.297Z,5.53
2019-06-07T18:38:21.867Z,5.08
2019-06-07T18:40:53.291Z,5.40
2019-06-07T18:43:23.890Z,4.97
2019-06-07T18:45:55.969Z,5.53
2019-06-07T18:48:26.689Z,5.08
2019-06-07T18:50:59.057Z,5.53
2019-06-07T18:53:29.910Z,5.20
2019-06-07T18:56:00.556Z,4.90
2019-06-07T18:58:31.407Z,6.25
2019-06-07T19:01:02.622Z,5.70
2019-06-07T19:03:33.595Z,5.40
2019-06-07T19:06:04.435Z,5.25
2019-06-07T19:08:35.005Z,5.33
2019-06-07T19:11:05.754Z,5.45
2019-06-07T19:13:36.384Z,6.40
2019-06-07T19:16:07.014Z,6.08
2019-06-07T19:18:37.675Z,5.85
2019-06-07T19:21:08.615Z,5.85
2019-06-07T19:23:40.271Z,5.90
2019-06-07T19:26:10.940Z,5.92
2019-06-07T19:28:41.607Z,6.22
2019-06-07T19:31:12.349Z,6.53
2019-06-07T19:33:49.043Z,7.33
2019-06-07T19:36:15.303Z,6.78
2019-06-07T19:38:45.955Z,7.45
2019-06-07T19:41:19.747Z,8.88
2019-06-07T19:43:48.791Z,16.52
2019-06-07T19:46:19.690Z,17.37
2019-06-07T19:48:50.407Z,15.35
2019-06-07T19:51:22.087Z,16.35
2019-06-07T19:53:52.940Z,15.13
2019-06-07T19:56:23.779Z,13.78
2019-06-07T19:58:55.445Z,14.43
2019-06-07T20:01:26.231Z,10.40
2019-06-07T20:03:58.013Z,9.08
2019-06-07T20:06:28.664Z,7.90
2019-06-07T20:09:00.979Z,7.15
2019-06-07T20:11:33.064Z,10.08
2019-06-07T20:14:05.036Z,9.43
2019-06-07T20:16:36.148Z,7.70
2019-06-07T20:19:06.810Z,7.67
2019-06-07T20:21:37.487Z,7.12
2019-06-07T20:24:24.706Z,6.42
2019-06-07T20:26:40.443Z,6.53
2019-06-07T20:29:25.478Z,6.80
2019-06-07T20:31:43.805Z,8.25
2019-06-07T20:34:14.737Z,9.05
2019-06-07T20:36:46.028Z,7.92
2019-06-07T20:39:17.838Z,7.92
2019-06-07T20:41:48.467Z,7.12
2019-06-07T20:44:19.392Z,7.12
2019-06-07T20:46:50.366Z,8.18
2019-06-07T20:49:20.853Z,7.85
2019-06-07T20:51:51.488Z,7.10
2019-06-07T20:54:21.968Z,6.10
2019-06-07T20:56:52.560Z,6.17
2019-06-07T20:59:23.164Z,6.03
2019-06-07T21:01:53.822Z,5.20
2019-06-07T21:04:24.431Z,5.15
2019-06-07T21:06:55.140Z,4.45
2019-06-07T21:09:25.796Z,3.92
2019-06-07T21:11:56.726Z,3.98
2019-06-07T21:14:27.302Z,3.92
2019-06-07T21:16:58.064Z,4.42
2019-06-07T21:19:28.723Z,3.62
2019-06-07T21:22:00.409Z,3.37
2019-06-07T21:24:31.202Z,3.35
2019-06-07T21:27:03.380Z,3.10
2019-06-07T21:29:34.344Z,2.67
2019-06-07T21:32:05.394Z,2.37
2019-06-07T21:34:36.496Z,2.47
2019-06-07T21:37:07.895Z,2.15
2019-06-07T21:39:38.719Z,1.90
2019-06-07T21:42:10.247Z,1.70
2019-06-07T21:44:40.951Z,1.98
2019-06-07T21:47:12.549Z,1.75
2019-06-07T21:49:43.402Z,1.37
2019-06-07T21:52:14.387Z,1.50
2019-06-07T21:54:45.460Z,1.65
2019-06-07T21:57:16.372Z,1.60
2019-06-07T21:59:47.248Z,1.27
2019-06-07T22:02:18.072Z,1.40
2019-06-07T22:04:48.840Z,1.45
2019-06-07T22:07:19.593Z,1.75
2019-06-07T22:09:50.142Z,1.27
2019-06-07T22:12:21.090Z,1.87
2019-06-07T22:14:51.791Z,1.32
2019-06-07T22:17:22.287Z,1.77
2019-06-07T22:19:52.988Z,1.40
2019-06-07T22:22:23.630Z,1.20
2019-06-07T22:24:54.327Z,1.25
2019-06-07T22:27:25.449Z,0.80
2019-06-07T22:29:56.108Z,1.00
2019-06-07T22:32:26.648Z,1.37
2019-06-07T22:34:57.361Z,1.00
2019-06-07T22:37:28.126Z,1.10
2019-06-07T22:39:58.909Z,1.05
2019-06-07T22:42:29.476Z,1.02
2019-06-07T22:45:00.163Z,1.07
2019-06-07T22:47:30.810Z,0.82
2019-06-07T22:50:01.538Z,1.57
2019-06-07T22:52:32.598Z,0.80
2019-06-07T22:55:04.055Z,1.10
2019-06-07T22:57:52.658Z,1.00
2019-06-07T23:00:26.046Z,0.70
2019-06-07T23:02:56.822Z,0.75
2019-06-07T23:05:27.525Z,0.88
2019-06-07T23:07:58.240Z,0.70
2019-06-07T23:10:28.978Z,0.82
2019-06-07T23:12:59.669Z,0.75
2019-06-07T23:15:30.409Z,0.90
2019-06-07T23:18:01.165Z,0.70
2019-06-07T23:20:31.912Z,0.72
2019-06-07T23:23:02.636Z,1.00
2019-06-07T23:25:33.310Z,0.75
2019-06-07T23:28:04.129Z,0.85
2019-06-07T23:30:35.050Z,0.82
2019-06-07T23:33:05.614Z,0.98
2019-06-07T23:35:36.209Z,0.60
2019-06-07T23:38:06.904Z,0.80
2019-06-07T23:40:37.589Z,0.90
2019-06-07T23:43:08.301Z,0.98
2019-06-07T23:45:39.111Z,1.10
2019-06-07T23:48:09.746Z,0.90
2019-06-07T23:50:40.433Z,0.82
2019-06-07T23:53:11.687Z,1.15
2019-06-07T23:55:43.503Z,1.15
2019-06-07T23:58:14.292Z,0.98
